createdAt,value
2019-04-26T00:01:54.141Z,21.87
2019-04-26T00:04:22.246Z,31.40
2019-04-26T00:06:50.401Z,25.27
2019-04-26T00:09:37.763Z,25.43
2019-04-26T00:12:16.486Z,24.03
2019-04-26T00:15:10.272Z,25.60
2019-04-26T00:17:43.938Z,27.57
2019-04-26T00:20:12.908Z,26.80
2019-04-26T00:22:40.837Z,28.30
2019-04-26T00:25:09.976Z,22.97
2019-04-26T00:27:39.094Z,25.00
2019-04-26T00:30:08.104Z,26.87
2019-04-26T00:32:36.484Z,28.13
2019-04-26T00:35:05.362Z,26.13
2019-04-26T00:37:33.768Z,26.87
2019-04-26T00:40:01.961Z,23.57
2019-04-26T00:42:31.361Z,23.07
2019-04-26T00:44:59.673Z,23.23
2019-04-26T00:47:28.603Z,21.63
2019-04-26T00:49:57.599Z,22.87
2019-04-26T00:52:26.926Z,21.33
2019-04-26T00:54:56.248Z,24.07
2019-04-26T00:57:24.945Z,27.03
2019-04-26T00:59:53.308Z,28.67
2019-04-26T01:02:28.189Z,26.50
2019-04-26T01:04:56.540Z,20.63
2019-04-26T01:07:25.340Z,24.27
2019-04-26T01:09:53.719Z,24.47
2019-04-26T01:12:21.990Z,24.60
2019-04-26T01:14:50.696Z,26.07
2019-04-26T01:17:20.331Z,26.43
2019-04-26T01:19:49.505Z,20.93
2019-04-26T01:22:23.370Z,22.93
2019-04-26T01:24:54.358Z,27.07
2019-04-26T01:27:25.547Z,29.27
2019-04-26T01:29:58.086Z,25.37
2019-04-26T01:32:29.373Z,20.30
2019-04-26T01:34:57.881Z,21.43
2019-04-26T01:37:26.919Z,25.87
2019-04-26T01:40:00.946Z,24.43
2019-04-26T01:42:57.904Z,21.90
2019-04-26T01:45:32.150Z,23.67
2019-04-26T01:48:04.811Z,22.97
2019-04-26T01:50:34.936Z,19.57
2019-04-26T01:53:04.377Z,22.43
2019-04-26T01:55:32.443Z,19.70
2019-04-26T01:58:03.206Z,24.30
2019-04-26T02:00:56.775Z,18.97
2019-04-26T02:03:27.807Z,24.17
2019-04-26T02:05:55.917Z,21.33
2019-04-26T02:08:24.548Z,21.90
2019-04-26T02:10:52.798Z,20.63
2019-04-26T02:13:21.208Z,20.53
2019-04-26T02:15:49.413Z,23.93
2019-04-26T02:18:17.378Z,25.63
2019-04-26T02:21:19.202Z,24.37
2019-04-26T02:24:18.658Z,22.40
2019-04-26T02:26:47.944Z,22.03
2019-04-26T02:29:25.080Z,29.17
2019-04-26T02:31:56.934Z,28.60
2019-04-26T02:34:27.971Z,18.93
2019-04-26T02:36:59.245Z,21.67
2019-04-26T02:39:34.088Z,22.00
2019-04-26T02:42:05.534Z,24.00
2019-04-26T02:44:53.940Z,24.43
2019-04-26T02:47:47.801Z,23.87
2019-04-26T02:50:22.134Z,23.43
2019-04-26T02:53:28.820Z,31.83
2019-04-26T02:56:15.459Z,24.40
2019-04-26T02:59:15.634Z,26.70
2019-04-26T03:01:43.805Z,26.40
2019-04-26T03:04:12.430Z,23.03
2019-04-26T03:06:43.631Z,22.17
2019-04-26T03:09:14.546Z,22.97
2019-04-26T03:11:46.122Z,22.77
2019-04-26T03:14:34.986Z,29.70
2019-04-26T03:17:12.237Z,26.67
2019-04-26T03:19:55.408Z,23.37
2019-04-26T03:22:53.826Z,21.53
2019-04-26T03:25:32.823Z,26.27
2019-04-26T03:28:48.978Z,22.90
2019-04-26T03:31:38.959Z,28.43
2019-04-26T03:34:24.880Z,23.23
2019-04-26T03:38:01.880Z,22.63
2019-04-26T03:40:49.019Z,28.57
2019-04-26T03:43:53.996Z,22.97
2019-04-26T03:46:45.446Z,26.40
2019-04-26T03:49:41.403Z,29.00
2019-04-26T03:52:27.616Z,31.20
2019-04-26T03:55:00.122Z,27.03
2019-04-26T03:57:44.851Z,27.07
2019-04-26T04:00:37.191Z,25.43
2019-04-26T04:03:19.822Z,28.73
2019-04-26T04:05:51.409Z,27.27
2019-04-26T04:08:25.462Z,25.03
2019-04-26T04:10:59.963Z,23.83
2019-04-26T04:13:55.586Z,34.80
2019-04-26T04:16:46.749Z,23.87
2019-04-26T04:19:37.275Z,25.87
2019-04-26T04:22:09.592Z,21.43
2019-04-26T04:24:53.533Z,22.17
2019-04-26T04:27:29.145Z,28.77
2019-04-26T04:30:12.922Z,27.70
2019-04-26T04:33:00.163Z,27.43
2019-04-26T04:35:31.807Z,26.07
2019-04-26T04:38:09.815Z,24.60
2019-04-26T04:41:31.143Z,23.90
2019-04-26T04:45:19.264Z,24.17
2019-04-26T04:48:28.231Z,25.17
2019-04-26T04:51:40.857Z,26.33
2019-04-26T04:54:20.611Z,27.67
2019-04-26T04:57:09.274Z,28.87
2019-04-26T05:00:01.387Z,25.10
2019-04-26T05:03:02.222Z,27.80
2019-04-26T05:06:07.240Z,22.93
2019-04-26T05:08:51.189Z,27.33
2019-04-26T05:11:28.257Z,26.30
2019-04-26T05:14:09.037Z,29.20
2019-04-26T05:17:14.389Z,26.87
2019-04-26T05:19:54.923Z,27.93
2019-04-26T05:23:02.352Z,31.80
2019-04-26T05:26:58.369Z,32.33
2019-04-26T05:30:20.569Z,24.77
2019-04-26T05:33:02.225Z,28.17
2019-04-26T05:36:03.635Z,31.03
2019-04-26T05:39:10.413Z,27.73
2019-04-26T05:42:23.121Z,33.40
2019-04-26T05:45:49.991Z,30.20
2019-04-26T05:48:51.927Z,32.80
2019-04-26T05:52:13.539Z,39.93
2019-04-26T05:55:10.893Z,57.40
2019-04-26T05:57:58.921Z,48.63
2019-04-26T06:01:06.675Z,38.03
2019-04-26T06:04:18.156Z,25.73
2019-04-26T06:07:33.446Z,32.63
2019-04-26T06:10:31.941Z,32.07
2019-04-26T06:13:29.307Z,36.30
2019-04-26T06:16:12.078Z,46.10
2019-04-26T06:19:05.094Z,41.53
2019-04-26T06:22:07.568Z,32.97
2019-04-26T06:25:06.790Z,36.37
2019-04-26T06:27:54.553Z,31.40
2019-04-26T06:31:06.039Z,31.47
2019-04-26T06:34:13.699Z,32.33
2019-04-26T06:37:21.561Z,35.10
2019-04-26T06:40:08.811Z,33.30
2019-04-26T06:43:09.651Z,30.67
2019-04-26T06:46:35.600Z,28.20
2019-04-26T06:50:15.007Z,34.73
2019-04-26T06:53:04.660Z,31.10
2019-04-26T06:55:47.764Z,37.37
2019-04-26T06:58:52.457Z,33.83
2019-04-26T07:01:34.026Z,35.77
2019-04-26T07:04:29.027Z,32.67
2019-04-26T07:07:24.595Z,39.23
2019-04-26T07:10:08.890Z,42.27
2019-04-26T07:12:56.950Z,34.97
2019-04-26T07:15:48.618Z,38.77
2019-04-26T07:18:51.418Z,40.27
2019-04-26T07:21:51.940Z,40.47
2019-04-26T07:25:09.805Z,40.67
2019-04-26T07:28:19.055Z,35.07
2019-04-26T07:31:02.595Z,34.63
2019-04-26T07:34:07.303Z,33.10
2019-04-26T07:37:15.534Z,45.73
2019-04-26T07:40:45.772Z,31.67
2019-04-26T07:43:42.306Z,34.80
2019-04-26T07:46:42.132Z,28.23
2019-04-26T07:49:52.071Z,24.73
2019-04-26T07:53:03.248Z,24.77
2019-04-26T07:56:00.728Z,34.00
2019-04-26T07:59:04.483Z,26.00
2019-04-26T08:02:09.035Z,36.80
2019-04-26T08:04:42.732Z,30.80
2019-04-26T08:07:18.169Z,23.53
2019-04-26T08:09:59.924Z,26.70
2019-04-26T08:12:30.823Z,35.90
2019-04-26T08:15:40.951Z,23.43
2019-04-26T08:18:20.630Z,23.60
2019-04-26T08:20:55.322Z,27.20
2019-04-26T08:23:41.900Z,26.13
2019-04-26T08:26:11.183Z,22.87
2019-04-26T08:28:42.279Z,27.57
2019-04-26T08:31:15.507Z,27.77
2019-04-26T08:33:50.917Z,28.07
2019-04-26T08:36:23.202Z,23.83
2019-04-26T08:38:54.034Z,24.27
2019-04-26T08:41:24.199Z,24.90
2019-04-26T08:44:18.572Z,23.57
2019-04-26T08:47:16.090Z,17.83
2019-04-26T08:50:03.177Z,19.37
2019-04-26T08:52:47.222Z,22.13
2019-04-26T08:55:18.695Z,18.07
2019-04-26T08:57:49.749Z,18.07
2019-04-26T09:00:46.646Z,13.83
2019-04-26T09:03:49.281Z,15.20
2019-04-26T09:06:51.811Z,12.40
2019-04-26T09:09:36.903Z,11.37
2019-04-26T09:12:23.297Z,9.50
2019-04-26T09:15:36.050Z,10.30
2019-04-26T09:18:19.398Z,8.43
2019-04-26T09:21:02.332Z,11.70
2019-04-26T09:23:59.060Z,10.87
2019-04-26T09:26:48.427Z,10.17
2019-04-26T09:29:30.441Z,13.40
2019-04-26T09:32:24.101Z,11.63
2019-04-26T09:35:11.262Z,8.77
2019-04-26T09:37:49.704Z,9.63
2019-04-26T09:40:52.462Z,13.00
2019-04-26T09:43:23.549Z,8.37
2019-04-26T09:46:25.387Z,8.90
2019-04-26T09:49:23.384Z,8.57
2019-04-26T09:52:11.287Z,13.47
2019-04-26T09:54:58.586Z,10.23
2019-04-26T09:57:39.070Z,7.20
2019-04-26T10:00:30.238Z,12.93
2019-04-26T10:03:16.638Z,9.40
2019-04-26T10:06:00.029Z,12.63
2019-04-26T10:08:46.721Z,8.10
2019-04-26T10:11:33.479Z,11.90
2019-04-26T10:14:31.223Z,7.07
2019-04-26T10:17:21.310Z,7.27
2019-04-26T10:19:51.276Z,6.83
2019-04-26T10:22:19.436Z,7.90
2019-04-26T10:25:16.348Z,8.43
2019-04-26T10:27:51.075Z,14.50
2019-04-26T10:30:28.706Z,9.67
2019-04-26T10:32:58.402Z,10.33
2019-04-26T10:35:26.712Z,11.23
2019-04-26T10:38:08.878Z,14.70
2019-04-26T10:40:51.646Z,10.40
2019-04-26T10:43:19.640Z,10.50
2019-04-26T10:46:02.352Z,10.00
2019-04-26T10:48:45.443Z,9.90
2019-04-26T10:51:34.083Z,8.73
2019-04-26T10:54:09.191Z,8.27
2019-04-26T10:57:05.616Z,12.33
2019-04-26T10:59:47.390Z,9.83
2019-04-26T11:02:18.225Z,8.27
2019-04-26T11:04:46.277Z,9.17
2019-04-26T11:07:14.547Z,8.83
2019-04-26T11:09:42.669Z,8.43
2019-04-26T11:12:13.861Z,10.57
2019-04-26T11:15:06.173Z,11.17
2019-04-26T11:17:33.094Z,10.90
2019-04-26T11:20:01.110Z,9.00
2019-04-26T11:22:29.685Z,10.50
2019-04-26T11:24:59.011Z,8.83
2019-04-26T11:27:27.850Z,15.07
2019-04-26T11:30:00.069Z,13.67
2019-04-26T11:32:41.032Z,11.37
2019-04-26T11:35:09.696Z,6.90
2019-04-26T11:38:13.028Z,10.70
2019-04-26T11:41:05.822Z,13.03
2019-04-26T11:43:40.309Z,11.47
2019-04-26T11:46:29.149Z,13.47
2019-04-26T11:49:11.869Z,11.03
2019-04-26T11:51:58.568Z,12.03
2019-04-26T11:54:23.578Z,11.63
2019-04-26T11:56:54.885Z,12.97
2019-04-26T11:59:22.993Z,8.70
2019-04-26T12:02:33.036Z,12.10
2019-04-26T12:05:30.756Z,9.13
2019-04-26T12:08:13.752Z,11.30
2019-04-26T12:11:03.601Z,13.13
2019-04-26T12:13:59.548Z,14.63
2019-04-26T12:16:25.950Z,10.80
2019-04-26T12:18:53.968Z,15.00
2019-04-26T12:21:22.029Z,13.50
2019-04-26T12:23:54.926Z,12.27
2019-04-26T12:26:21.774Z,15.97
2019-04-26T12:28:50.354Z,11.87
2019-04-26T12:31:18.290Z,15.40
2019-04-26T12:33:46.349Z,10.13
2019-04-26T12:36:14.469Z,14.17
2019-04-26T12:38:42.497Z,9.10
2019-04-26T12:41:11.657Z,9.83
2019-04-26T12:43:40.028Z,8.17
2019-04-26T12:46:15.589Z,10.03
2019-04-26T12:48:45.989Z,11.30
2019-04-26T12:51:13.879Z,10.70
2019-04-26T12:53:41.928Z,8.37
2019-04-26T12:56:10.051Z,9.57
2019-04-26T12:58:38.070Z,11.07
2019-04-26T13:01:12.148Z,9.33
2019-04-26T13:03:38.011Z,8.80
2019-04-26T13:06:09.279Z,11.30
2019-04-26T13:08:38.111Z,8.97
2019-04-26T13:11:31.848Z,8.33
2019-04-26T13:14:38.761Z,5.67
2019-04-26T13:17:06.779Z,5.10
2019-04-26T13:19:34.990Z,8.50
2019-04-26T13:22:03.446Z,7.20
2019-04-26T13:24:39.800Z,8.70
2019-04-26T13:27:10.634Z,7.70
2019-04-26T13:29:38.448Z,6.23
2019-04-26T13:32:07.498Z,10.13
2019-04-26T13:34:37.244Z,6.37
2019-04-26T13:37:06.844Z,5.07
2019-04-26T13:39:51.199Z,6.00
2019-04-26T13:42:33.033Z,6.93
2019-04-26T13:45:26.845Z,7.10
2019-04-26T13:48:27.978Z,7.37
2019-04-26T13:51:02.463Z,7.13
2019-04-26T13:53:31.265Z,11.73
2019-04-26T13:56:01.937Z,7.63
2019-04-26T13:58:29.045Z,8.00
2019-04-26T14:00:57.038Z,5.90
2019-04-26T14:03:27.172Z,6.43
2019-04-26T14:05:55.740Z,9.83
2019-04-26T14:08:23.700Z,7.43
2019-04-26T14:10:55.153Z,8.70
2019-04-26T14:13:24.929Z,6.33
2019-04-26T14:16:06.306Z,6.03
2019-04-26T14:18:39.163Z,8.17
2019-04-26T14:21:05.261Z,8.70
2019-04-26T14:23:53.963Z,6.77
2019-04-26T14:26:26.989Z,7.23
2019-04-26T14:28:58.107Z,7.03
2019-04-26T14:31:25.047Z,7.30
2019-04-26T14:33:53.570Z,6.53
2019-04-26T14:36:22.637Z,6.50
2019-04-26T14:38:51.523Z,5.83
2019-04-26T14:41:22.561Z,6.27
2019-04-26T14:43:52.668Z,4.43
2019-04-26T14:46:18.982Z,5.87
2019-04-26T14:49:00.592Z,5.10
2019-04-26T14:51:18.650Z,4.70
2019-04-26T14:53:46.854Z,9.43
2019-04-26T14:56:30.828Z,8.83
2019-04-26T14:59:12.263Z,8.90
2019-04-26T15:02:13.267Z,6.73
2019-04-26T15:05:09.047Z,6.27
2019-04-26T15:07:51.371Z,6.50
2019-04-26T15:10:45.734Z,7.83
2019-04-26T15:13:17.228Z,6.60
2019-04-26T15:16:14.489Z,8.43
2019-04-26T15:18:42.639Z,8.23
2019-04-26T15:21:12.722Z,21.03
2019-04-26T15:23:40.610Z,5.67
2019-04-26T15:26:08.483Z,8.77
2019-04-26T15:28:36.442Z,8.17
2019-04-26T15:31:04.590Z,5.70
2019-04-26T15:33:33.466Z,5.60
2019-04-26T15:36:06.025Z,6.60
2019-04-26T15:38:34.890Z,6.50
2019-04-26T15:41:27.290Z,8.90
2019-04-26T15:44:28.260Z,9.33
2019-04-26T15:47:20.761Z,4.93
2019-04-26T15:49:55.701Z,5.10
2019-04-26T15:52:24.017Z,7.57
2019-04-26T15:55:06.752Z,9.23
2019-04-26T15:57:48.926Z,9.00
2019-04-26T16:00:32.792Z,9.40
2019-04-26T16:03:14.834Z,9.43
2019-04-26T16:05:59.179Z,8.87
2019-04-26T16:08:42.535Z,13.80
2019-04-26T16:11:11.307Z,7.93
2019-04-26T16:14:02.159Z,6.80
2019-04-26T16:16:32.450Z,8.77
2019-04-26T16:19:13.535Z,8.63
2019-04-26T16:21:55.387Z,13.83
2019-04-26T16:24:37.693Z,7.37
2019-04-26T16:27:19.283Z,7.10
2019-04-26T16:29:59.554Z,7.47
2019-04-26T16:32:58.949Z,7.80
2019-04-26T16:35:28.239Z,9.23
2019-04-26T16:37:59.963Z,13.60
2019-04-26T16:40:26.387Z,6.17
2019-04-26T16:42:56.636Z,9.23
2019-04-26T16:45:24.076Z,8.53
2019-04-26T16:47:53.147Z,10.33
2019-04-26T16:50:23.946Z,10.93
2019-04-26T16:52:50.978Z,10.67
2019-04-26T16:55:21.292Z,8.20
2019-04-26T16:58:06.264Z,8.27
2019-04-26T17:00:50.193Z,8.40
2019-04-26T17:03:08.072Z,11.43
2019-04-26T17:08:09.970Z,6.43
2019-04-26T17:09:50.938Z,8.20
2019-04-26T17:10:34.380Z,8.23
2019-04-26T17:13:03.189Z,7.33
2019-04-26T17:16:22.459Z,9.77
2019-04-26T17:18:46.652Z,8.57
2019-04-26T17:21:17.563Z,7.53
2019-04-26T17:23:55.540Z,7.13
2019-04-26T17:26:33.600Z,12.93
2019-04-26T17:28:59.773Z,7.37
2019-04-26T17:31:27.816Z,7.43
2019-04-26T17:33:55.796Z,9.67
2019-04-26T17:36:23.900Z,8.23
2019-04-26T17:38:51.747Z,8.13
2019-04-26T17:41:19.640Z,8.63
2019-04-26T17:43:52.026Z,9.27
2019-04-26T17:46:18.167Z,6.80
2019-04-26T17:48:49.237Z,7.67
2019-04-26T17:51:19.425Z,10.80
2019-04-26T17:53:47.967Z,12.50
2019-04-26T17:56:16.898Z,9.37
2019-04-26T17:58:54.408Z,12.33
2019-04-26T18:01:39.021Z,8.60
2019-04-26T18:03:51.255Z,8.83
2019-04-26T18:06:15.521Z,12.53
2019-04-26T18:08:51.961Z,10.43
2019-04-26T18:11:19.537Z,12.53
2019-04-26T18:13:51.242Z,8.27
2019-04-26T18:16:46.797Z,11.80
2019-04-26T18:19:30.348Z,10.17
2019-04-26T18:22:07.771Z,10.23
2019-04-26T18:24:35.768Z,11.63
2019-04-26T18:27:04.039Z,9.53
2019-04-26T18:29:33.657Z,9.70
2019-04-26T18:32:03.701Z,9.33
2019-04-26T18:34:37.221Z,8.60
2019-04-26T18:37:04.103Z,10.07
2019-04-26T18:39:31.215Z,11.20
2019-04-26T18:42:02.931Z,13.23
2019-04-26T18:44:38.433Z,11.17
2019-04-26T18:47:37.819Z,9.17
2019-04-26T18:50:06.794Z,10.60
2019-04-26T18:52:37.340Z,9.87
2019-04-26T18:55:29.252Z,9.30
2019-04-26T18:58:01.371Z,9.00
2019-04-26T19:00:30.516Z,15.70
2019-04-26T19:03:00.044Z,12.67
2019-04-26T19:05:30.062Z,11.27
2019-04-26T19:07:58.058Z,16.93
2019-04-26T19:10:29.230Z,17.70
2019-04-26T19:13:00.153Z,9.50
2019-04-26T19:16:03.794Z,14.33
2019-04-26T19:18:51.865Z,12.07
2019-04-26T19:22:20.365Z,8.90
2019-04-26T19:24:49.349Z,8.57
2019-04-26T19:27:22.315Z,12.00
2019-04-26T19:29:48.681Z,11.97
2019-04-26T19:32:16.812Z,12.27
2019-04-26T19:34:44.920Z,13.63
2019-04-26T19:37:12.862Z,16.50
2019-04-26T19:39:42.600Z,19.57
2019-04-26T19:42:11.780Z,16.13
2019-04-26T19:44:39.857Z,13.27
2019-04-26T19:47:17.439Z,10.40
2019-04-26T19:50:10.304Z,10.07
2019-04-26T19:52:52.967Z,13.20
2019-04-26T19:55:41.840Z,17.37
2019-04-26T19:58:16.157Z,12.10
2019-04-26T20:00:43.472Z,11.80
2019-04-26T20:03:13.385Z,46.50
2019-04-26T20:05:44.209Z,20.37
2019-04-26T20:08:12.047Z,12.80
2019-04-26T20:10:46.397Z,12.90
2019-04-26T20:13:16.717Z,9.97
2019-04-26T20:16:15.291Z,12.10
2019-04-26T20:18:42.218Z,8.83
2019-04-26T20:21:15.063Z,10.20
2019-04-26T20:23:45.884Z,7.90
2019-04-26T20:26:25.369Z,9.37
2019-04-26T20:28:59.157Z,7.27
2019-04-26T20:31:56.513Z,10.37
2019-04-26T20:34:27.357Z,7.50
2019-04-26T20:36:57.177Z,9.07
2019-04-26T20:39:26.346Z,8.13
2019-04-26T20:42:01.980Z,10.07
2019-04-26T20:44:39.171Z,11.90
2019-04-26T20:46:59.035Z,9.50
2019-04-26T20:49:32.175Z,8.70
2019-04-26T20:52:01.901Z,9.57
2019-04-26T20:54:34.775Z,11.50
2019-04-26T20:57:05.133Z,8.07
2019-04-26T20:59:36.319Z,10.87
2019-04-26T21:02:08.076Z,7.53
2019-04-26T21:04:38.449Z,9.10
2019-04-26T21:07:06.763Z,8.83
2019-04-26T21:09:40.832Z,10.57
2019-04-26T21:12:07.439Z,11.83
2019-04-26T21:14:47.810Z,11.57
2019-04-26T21:17:28.878Z,8.63
2019-04-26T21:20:02.168Z,11.50
2019-04-26T21:22:35.753Z,11.50
2019-04-26T21:25:11.836Z,13.60
2019-04-26T21:27:58.293Z,15.57
2019-04-26T21:30:38.486Z,13.23
2019-04-26T21:33:12.903Z,9.80
2019-04-26T21:35:52.991Z,10.93
2019-04-26T21:38:40.442Z,11.33
2019-04-26T21:41:14.053Z,12.73
2019-04-26T21:43:43.821Z,12.43
2019-04-26T21:46:18.653Z,12.77
2019-04-26T21:48:44.847Z,12.63
2019-04-26T21:51:16.234Z,11.67
2019-04-26T21:53:46.484Z,19.93
2019-04-26T21:56:17.308Z,14.00
2019-04-26T21:58:46.046Z,15.63
2019-04-26T22:01:20.482Z,13.07
2019-04-26T22:03:54.229Z,19.43
2019-04-26T22:06:19.857Z,13.80
2019-04-26T22:09:05.127Z,12.77
2019-04-26T22:11:33.518Z,16.77
2019-04-26T22:14:06.129Z,15.87
2019-04-26T22:16:48.891Z,15.67
2019-04-26T22:19:39.197Z,18.63
2019-04-26T22:22:41.472Z,18.53
2019-04-26T22:25:08.332Z,19.37
2019-04-26T22:27:36.363Z,16.43
2019-04-26T22:30:08.366Z,15.03
2019-04-26T22:32:36.410Z,14.87
2019-04-26T22:35:04.594Z,10.77
2019-04-26T22:37:33.729Z,13.90
2019-04-26T22:40:03.578Z,17.37
2019-04-26T22:42:40.031Z,13.97
2019-04-26T22:45:20.889Z,17.87
2019-04-26T22:47:54.354Z,15.57
2019-04-26T22:50:24.915Z,15.40
2019-04-26T22:52:53.136Z,12.83
2019-04-26T22:55:27.089Z,12.97
2019-04-26T22:57:53.044Z,16.27
2019-04-26T23:00:27.916Z,16.03
2019-04-26T23:02:53.328Z,18.90
2019-04-26T23:05:23.032Z,14.80
2019-04-26T23:07:54.715Z,14.60
2019-04-26T23:10:28.232Z,12.40
2019-04-26T23:13:17.989Z,18.03
2019-04-26T23:16:11.170Z,16.77
2019-04-26T23:18:47.286Z,17.07
2019-04-26T23:21:25.049Z,15.30
2019-04-26T23:23:53.467Z,13.27
2019-04-26T23:26:23.054Z,11.60
2019-04-26T23:28:51.273Z,16.30
2019-04-26T23:31:19.264Z,19.03
2019-04-26T23:33:47.215Z,14.07
2019-04-26T23:36:18.284Z,18.70
2019-04-26T23:38:45.026Z,14.63
2019-04-26T23:41:14.175Z,13.17
2019-04-26T23:43:42.390Z,14.07
2019-04-26T23:46:10.443Z,12.17
2019-04-26T23:48:38.397Z,13.10
2019-04-26T23:51:08.374Z,16.23
2019-04-26T23:53:36.192Z,11.63
2019-04-26T23:56:04.505Z,16.43
2019-04-26T23:58:32.499Z,9.87
